sensor_id;sensor_type;location;lat;lon;timestamp;P1;durP1;ratioP1;P2;durP2;ratioP2
20067;SDS011;10194;50.824;7.134;2023-06-26T00:01:23;159.33;;;98.33;;
20067;SDS011;10194;50.824;7.134;2023-06-26T00:03:49;160.70;;;98.70;;
20067;SDS011;10194;50.824;7.134;2023-06-26T00:06:15;158.27;;;98.40;;
20067;SDS011;10194;50.824;7.134;2023-06-26T00:08:40;159.90;;;98.37;;
20067;SDS011;10194;50.824;7.134;2023-06-26T00:11:06;159.97;;;97.27;;
20067;SDS011;10194;50.824;7.134;2023-06-26T00:13:33;160.10;;;97.00;;
20067;SDS011;10194;50.824;7.134;2023-06-26T00:15:59;157.70;;;95.93;;
20067;SDS011;10194;50.824;7.134;2023-06-26T00:18:28;159.13;;;97.80;;
20067;SDS011;10194;50.824;7.134;2023-06-26T00:20:54;159.27;;;98.73;;
20067;SDS011;10194;50.824;7.134;2023-06-26T00:23:20;156.33;;;96.10;;
20067;SDS011;10194;50.824;7.134;2023-06-26T00:25:46;156.47;;;94.67;;
20067;SDS011;10194;50.824;7.134;2023-06-26T00:28:11;155.87;;;95.00;;
20067;SDS011;10194;50.824;7.134;2023-06-26T00:30:37;157.10;;;96.87;;
20067;SDS011;10194;50.824;7.134;2023-06-26T00:33:03;155.83;;;93.90;;
20067;SDS011;10194;50.824;7.134;2023-06-26T00:35:29;154.80;;;94.20;;
20067;SDS011;10194;50.824;7.134;2023-06-26T00:37:54;160.43;;;98.47;;
20067;SDS011;10194;50.824;7.134;2023-06-26T00:40:20;157.87;;;96.77;;
20067;SDS011;10194;50.824;7.134;2023-06-26T00:42:46;158.97;;;96.73;;
20067;SDS011;10194;50.824;7.134;2023-06-26T00:45:12;156.07;;;93.87;;
20067;SDS011;10194;50.824;7.134;2023-06-26T00:47:38;156.87;;;95.87;;
20067;SDS011;10194;50.824;7.134;2023-06-26T00:50:04;157.30;;;92.67;;
20067;SDS011;10194;50.824;7.134;2023-06-26T00:52:31;157.23;;;94.77;;
20067;SDS011;10194;50.824;7.134;2023-06-26T00:54:57;158.87;;;96.80;;
20067;SDS011;10194;50.824;7.134;2023-06-26T00:57:23;161.60;;;98.33;;
20067;SDS011;10194;50.824;7.134;2023-06-26T00:59:49;158.97;;;97.57;;
20067;SDS011;10194;50.824;7.134;2023-06-26T01:02:15;161.27;;;97.30;;
20067;SDS011;10194;50.824;7.134;2023-06-26T01:04:46;164.33;;;99.50;;
20067;SDS011;10194;50.824;7.134;2023-06-26T01:07:16;160.07;;;97.27;;
20067;SDS011;10194;50.824;7.134;2023-06-26T01:09:46;156.13;;;93.97;;
20067;SDS011;10194;50.824;7.134;2023-06-26T01:12:13;152.33;;;92.53;;
20067;SDS011;10194;50.824;7.134;2023-06-26T01:14:40;147.87;;;86.67;;
20067;SDS011;10194;50.824;7.134;2023-06-26T01:17:06;157.67;;;96.67;;
20067;SDS011;10194;50.824;7.134;2023-06-26T01:19:36;155.73;;;94.63;;
20067;SDS011;10194;50.824;7.134;2023-06-26T01:27:53;151.33;;;89.90;;
20067;SDS011;10194;50.824;7.134;2023-06-26T01:30:20;152.27;;;89.83;;
20067;SDS011;10194;50.824;7.134;2023-06-26T01:32:47;148.50;;;86.63;;
20067;SDS011;10194;50.824;7.134;2023-06-26T01:35:14;152.73;;;91.47;;
20067;SDS011;10194;50.824;7.134;2023-06-26T01:37:40;143.70;;;83.27;;
20067;SDS011;10194;50.824;7.134;2023-06-26T01:40:06;153.30;;;92.03;;
20067;SDS011;10194;50.824;7.134;2023-06-26T01:42:33;155.20;;;93.00;;
20067;SDS011;10194;50.824;7.134;2023-06-26T01:45:06;154.10;;;91.90;;
20067;SDS011;10194;50.824;7.134;2023-06-26T01:47:38;152.73;;;88.10;;
20067;SDS011;10194;50.824;7.134;2023-06-26T01:50:11;156.27;;;93.73;;
20067;SDS011;10194;50.824;7.134;2023-06-26T01:58:14;153.30;;;90.20;;
20067;SDS011;10194;50.824;7.134;2023-06-26T02:00:42;145.37;;;84.07;;
20067;SDS011;10194;50.824;7.134;2023-06-26T02:03:08;159.93;;;93.87;;
20067;SDS011;10194;50.824;7.134;2023-06-26T02:05:34;154.00;;;90.73;;
20067;SDS011;10194;50.824;7.134;2023-06-26T02:08:00;150.00;;;88.77;;
20067;SDS011;10194;50.824;7.134;2023-06-26T02:10:29;157.67;;;93.23;;
20067;SDS011;10194;50.824;7.134;2023-06-26T02:12:55;151.10;;;90.23;;
20067;SDS011;10194;50.824;7.134;2023-06-26T02:15:20;140.43;;;80.27;;
20067;SDS011;10194;50.824;7.134;2023-06-26T02:17:46;143.13;;;82.57;;
20067;SDS011;10194;50.824;7.134;2023-06-26T02:20:13;151.70;;;90.63;;
20067;SDS011;10194;50.824;7.134;2023-06-26T02:22:40;135.37;;;77.77;;
20067;SDS011;10194;50.824;7.134;2023-06-26T02:25:07;147.43;;;85.93;;
20067;SDS011;10194;50.824;7.134;2023-06-26T02:27:33;152.13;;;90.57;;
20067;SDS011;10194;50.824;7.134;2023-06-26T02:29:59;137.17;;;77.47;;
20067;SDS011;10194;50.824;7.134;2023-06-26T02:32:25;142.10;;;83.27;;
20067;SDS011;10194;50.824;7.134;2023-06-26T02:34:51;147.80;;;86.93;;
20067;SDS011;10194;50.824;7.134;2023-06-26T02:37:17;154.27;;;93.33;;
20067;SDS011;10194;50.824;7.134;2023-06-26T02:39:43;150.10;;;86.27;;
20067;SDS011;10194;50.824;7.134;2023-06-26T02:42:09;149.23;;;87.37;;
20067;SDS011;10194;50.824;7.134;2023-06-26T02:44:34;155.97;;;90.50;;
20067;SDS011;10194;50.824;7.134;2023-06-26T02:47:00;151.77;;;88.83;;
20067;SDS011;10194;50.824;7.134;2023-06-26T02:49:26;147.73;;;86.00;;
20067;SDS011;10194;50.824;7.134;2023-06-26T02:51:51;153.33;;;88.53;;
20067;SDS011;10194;50.824;7.134;2023-06-26T02:54:17;156.43;;;91.53;;
20067;SDS011;10194;50.824;7.134;2023-06-26T02:56:43;150.63;;;89.63;;
20067;SDS011;10194;50.824;7.134;2023-06-26T02:59:09;148.70;;;88.00;;
20067;SDS011;10194;50.824;7.134;2023-06-26T03:01:34;154.20;;;91.37;;
20067;SDS011;10194;50.824;7.134;2023-06-26T03:04:00;154.80;;;90.63;;
20067;SDS011;10194;50.824;7.134;2023-06-26T03:06:26;153.27;;;89.67;;
20067;SDS011;10194;50.824;7.134;2023-06-26T03:08:52;150.17;;;87.90;;
20067;SDS011;10194;50.824;7.134;2023-06-26T03:11:19;149.90;;;87.40;;
20067;SDS011;10194;50.824;7.134;2023-06-26T03:13:45;149.87;;;88.37;;
20067;SDS011;10194;50.824;7.134;2023-06-26T03:16:15;151.97;;;89.47;;
20067;SDS011;10194;50.824;7.134;2023-06-26T03:18:40;145.67;;;84.70;;
20067;SDS011;10194;50.824;7.134;2023-06-26T03:21:06;153.37;;;89.07;;
20067;SDS011;10194;50.824;7.134;2023-06-26T03:23:32;153.43;;;90.30;;
20067;SDS011;10194;50.824;7.134;2023-06-26T03:25:58;149.93;;;87.63;;
20067;SDS011;10194;50.824;7.134;2023-06-26T03:28:23;146.13;;;84.97;;
20067;SDS011;10194;50.824;7.134;2023-06-26T03:30:49;158.90;;;91.07;;
20067;SDS011;10194;50.824;7.134;2023-06-26T03:33:15;152.80;;;90.17;;
20067;SDS011;10194;50.824;7.134;2023-06-26T03:35:40;147.43;;;86.70;;
20067;SDS011;10194;50.824;7.134;2023-06-26T03:38:06;146.97;;;85.17;;
20067;SDS011;10194;50.824;7.134;2023-06-26T03:40:32;150.43;;;88.37;;
20067;SDS011;10194;50.824;7.134;2023-06-26T03:42:58;153.33;;;89.43;;
20067;SDS011;10194;50.824;7.134;2023-06-26T03:45:23;148.43;;;87.53;;
20067;SDS011;10194;50.824;7.134;2023-06-26T03:47:49;145.40;;;84.20;;
20067;SDS011;10194;50.824;7.134;2023-06-26T03:50:17;155.53;;;91.00;;
20067;SDS011;10194;50.824;7.134;2023-06-26T03:52:44;149.67;;;85.70;;
20067;SDS011;10194;50.824;7.134;2023-06-26T03:55:10;154.50;;;92.10;;
20067;SDS011;10194;50.824;7.134;2023-06-26T03:57:37;151.70;;;90.20;;
20067;SDS011;10194;50.824;7.134;2023-06-26T04:00:03;142.50;;;81.47;;
20067;SDS011;10194;50.824;7.134;2023-06-26T04:02:52;152.53;;;92.47;;
20067;SDS011;10194;50.824;7.134;2023-06-26T04:05:18;151.07;;;88.60;;
20067;SDS011;10194;50.824;7.134;2023-06-26T04:07:45;156.37;;;92.83;;
20067;SDS011;10194;50.824;7.134;2023-06-26T04:10:10;147.63;;;88.47;;
20067;SDS011;10194;50.824;7.134;2023-06-26T04:12:36;158.47;;;94.10;;
20067;SDS011;10194;50.824;7.134;2023-06-26T04:15:02;138.83;;;81.33;;
20067;SDS011;10194;50.824;7.134;2023-06-26T04:17:28;144.00;;;86.40;;
20067;SDS011;10194;50.824;7.134;2023-06-26T04:19:54;152.00;;;91.87;;
20067;SDS011;10194;50.824;7.134;2023-06-26T04:22:19;149.50;;;91.00;;
20067;SDS011;10194;50.824;7.134;2023-06-26T04:24:45;141.53;;;84.43;;
20067;SDS011;10194;50.824;7.134;2023-06-26T04:27:11;147.57;;;90.87;;
20067;SDS011;10194;50.824;7.134;2023-06-26T04:29:38;136.60;;;79.57;;
20067;SDS011;10194;50.824;7.134;2023-06-26T04:32:04;144.37;;;86.33;;
20067;SDS011;10194;50.824;7.134;2023-06-26T04:34:32;148.73;;;90.93;;
20067;SDS011;10194;50.824;7.134;2023-06-26T04:36:59;143.10;;;86.47;;
20067;SDS011;10194;50.824;7.134;2023-06-26T04:39:24;146.90;;;89.10;;
20067;SDS011;10194;50.824;7.134;2023-06-26T04:41:50;160.63;;;98.40;;
20067;SDS011;10194;50.824;7.134;2023-06-26T04:44:16;156.20;;;98.67;;
20067;SDS011;10194;50.824;7.134;2023-06-26T04:46:42;149.00;;;90.13;;
20067;SDS011;10194;50.824;7.134;2023-06-26T04:49:08;153.80;;;96.33;;
20067;SDS011;10194;50.824;7.134;2023-06-26T04:51:34;150.37;;;93.90;;
20067;SDS011;10194;50.824;7.134;2023-06-26T04:54:05;155.47;;;97.07;;
20067;SDS011;10194;50.824;7.134;2023-06-26T04:56:35;156.57;;;98.60;;
20067;SDS011;10194;50.824;7.134;2023-06-26T04:59:01;147.97;;;90.33;;
20067;SDS011;10194;50.824;7.134;2023-06-26T05:01:28;154.97;;;96.23;;
20067;SDS011;10194;50.824;7.134;2023-06-26T05:04:03;159.27;;;99.83;;
20067;SDS011;10194;50.824;7.134;2023-06-26T05:06:29;153.10;;;94.67;;
20067;SDS011;10194;50.824;7.134;2023-06-26T05:08:55;154.77;;;97.17;;
20067;SDS011;10194;50.824;7.134;2023-06-26T05:11:21;149.40;;;92.20;;
20067;SDS011;10194;50.824;7.134;2023-06-26T05:13:47;152.70;;;95.97;;
20067;SDS011;10194;50.824;7.134;2023-06-26T05:16:14;157.23;;;101.10;;
20067;SDS011;10194;50.824;7.134;2023-06-26T05:18:40;153.77;;;96.23;;
20067;SDS011;10194;50.824;7.134;2023-06-26T05:21:06;155.67;;;99.43;;
20067;SDS011;10194;50.824;7.134;2023-06-26T05:23:32;152.40;;;95.33;;
20067;SDS011;10194;50.824;7.134;2023-06-26T05:26:00;150.37;;;95.50;;
20067;SDS011;10194;50.824;7.134;2023-06-26T05:28:27;152.73;;;94.00;;
20067;SDS011;10194;50.824;7.134;2023-06-26T05:30:56;155.43;;;98.60;;
20067;SDS011;10194;50.824;7.134;2023-06-26T05:33:23;155.83;;;98.40;;
20067;SDS011;10194;50.824;7.134;2023-06-26T05:35:52;152.83;;;96.63;;
20067;SDS011;10194;50.824;7.134;2023-06-26T05:38:19;156.80;;;97.60;;
20067;SDS011;10194;50.824;7.134;2023-06-26T05:40:46;156.37;;;100.30;;
20067;SDS011;10194;50.824;7.134;2023-06-26T05:43:12;153.70;;;95.77;;
20067;SDS011;10194;50.824;7.134;2023-06-26T05:45:39;154.97;;;99.43;;
20067;SDS011;10194;50.824;7.134;2023-06-26T05:48:05;156.70;;;98.73;;
20067;SDS011;10194;50.824;7.134;2023-06-26T05:50:31;160.93;;;102.57;;
20067;SDS011;10194;50.824;7.134;2023-06-26T05:52:57;158.57;;;101.63;;
20067;SDS011;10194;50.824;7.134;2023-06-26T05:55:24;156.90;;;99.00;;
20067;SDS011;10194;50.824;7.134;2023-06-26T05:57:50;156.17;;;97.90;;
20067;SDS011;10194;50.824;7.134;2023-06-26T06:00:17;156.87;;;96.17;;
20067;SDS011;10194;50.824;7.134;2023-06-26T06:02:45;154.50;;;98.93;;
20067;SDS011;10194;50.824;7.134;2023-06-26T06:05:10;158.23;;;98.70;;
20067;SDS011;10194;50.824;7.134;2023-06-26T06:07:36;158.93;;;100.30;;
20067;SDS011;10194;50.824;7.134;2023-06-26T06:10:02;157.80;;;101.00;;
20067;SDS011;10194;50.824;7.134;2023-06-26T06:12:29;155.10;;;98.83;;
20067;SDS011;10194;50.824;7.134;2023-06-26T06:14:55;155.17;;;97.17;;
20067;SDS011;10194;50.824;7.134;2023-06-26T06:17:22;155.60;;;99.77;;
20067;SDS011;10194;50.824;7.134;2023-06-26T06:19:48;159.40;;;100.43;;
20067;SDS011;10194;50.824;7.134;2023-06-26T06:22:14;156.20;;;98.40;;
20067;SDS011;10194;50.824;7.134;2023-06-26T06:24:41;155.50;;;100.07;;
20067;SDS011;10194;50.824;7.134;2023-06-26T06:27:07;158.73;;;101.23;;
20067;SDS011;10194;50.824;7.134;2023-06-26T06:29:33;157.60;;;101.07;;
20067;SDS011;10194;50.824;7.134;2023-06-26T06:31:59;155.97;;;98.17;;
20067;SDS011;10194;50.824;7.134;2023-06-26T06:34:24;155.70;;;97.17;;
20067;SDS011;10194;50.824;7.134;2023-06-26T06:36:50;152.53;;;94.47;;
20067;SDS011;10194;50.824;7.134;2023-06-26T06:39:16;156.83;;;95.67;;
20067;SDS011;10194;50.824;7.134;2023-06-26T06:41:42;157.70;;;98.27;;
20067;SDS011;10194;50.824;7.134;2023-06-26T06:44:07;159.03;;;96.20;;
20067;SDS011;10194;50.824;7.134;2023-06-26T06:46:33;159.87;;;96.73;;
20067;SDS011;10194;50.824;7.134;2023-06-26T06:48:59;159.13;;;96.33;;
20067;SDS011;10194;50.824;7.134;2023-06-26T06:51:25;155.23;;;98.30;;
20067;SDS011;10194;50.824;7.134;2023-06-26T06:53:51;156.50;;;99.97;;
20067;SDS011;10194;50.824;7.134;2023-06-26T06:56:17;157.73;;;98.07;;
20067;SDS011;10194;50.824;7.134;2023-06-26T06:58:43;158.90;;;100.50;;
20067;SDS011;10194;50.824;7.134;2023-06-26T07:01:11;157.67;;;95.60;;
20067;SDS011;10194;50.824;7.134;2023-06-26T07:03:38;156.23;;;98.07;;
20067;SDS011;10194;50.824;7.134;2023-06-26T07:06:05;159.07;;;98.47;;
20067;SDS011;10194;50.824;7.134;2023-06-26T07:08:30;161.00;;;102.07;;
20067;SDS011;10194;50.824;7.134;2023-06-26T07:10:56;158.67;;;97.80;;
20067;SDS011;10194;50.824;7.134;2023-06-26T07:13:22;161.33;;;102.70;;
20067;SDS011;10194;50.824;7.134;2023-06-26T07:15:48;160.40;;;99.97;;
20067;SDS011;10194;50.824;7.134;2023-06-26T07:18:14;158.50;;;104.23;;
20067;SDS011;10194;50.824;7.134;2023-06-26T07:20:40;169.67;;;108.43;;
20067;SDS011;10194;50.824;7.134;2023-06-26T07:23:06;167.80;;;108.77;;
20067;SDS011;10194;50.824;7.134;2023-06-26T07:25:33;164.50;;;109.73;;
20067;SDS011;10194;50.824;7.134;2023-06-26T07:27:58;167.03;;;110.83;;
20067;SDS011;10194;50.824;7.134;2023-06-26T07:30:24;166.80;;;115.23;;
20067;SDS011;10194;50.824;7.134;2023-06-26T07:32:50;168.87;;;116.53;;
20067;SDS011;10194;50.824;7.134;2023-06-26T07:35:16;167.90;;;121.47;;
20067;SDS011;10194;50.824;7.134;2023-06-26T07:37:42;163.97;;;118.73;;
20067;SDS011;10194;50.824;7.134;2023-06-26T07:40:08;165.60;;;126.87;;
20067;SDS011;10194;50.824;7.134;2023-06-26T07:42:34;167.33;;;128.20;;
20067;SDS011;10194;50.824;7.134;2023-06-26T07:45:00;167.23;;;127.20;;
20067;SDS011;10194;50.824;7.134;2023-06-26T07:47:26;162.70;;;121.63;;
20067;SDS011;10194;50.824;7.134;2023-06-26T07:49:52;164.13;;;118.53;;
20067;SDS011;10194;50.824;7.134;2023-06-26T07:52:18;161.53;;;113.43;;
20067;SDS011;10194;50.824;7.134;2023-06-26T07:54:44;161.00;;;108.63;;
20067;SDS011;10194;50.824;7.134;2023-06-26T07:57:10;164.00;;;108.57;;
20067;SDS011;10194;50.824;7.134;2023-06-26T07:59:37;166.80;;;110.63;;
20067;SDS011;10194;50.824;7.134;2023-06-26T08:02:03;165.93;;;111.80;;
20067;SDS011;10194;50.824;7.134;2023-06-26T08:04:29;166.30;;;109.13;;
20067;SDS011;10194;50.824;7.134;2023-06-26T08:06:57;166.47;;;110.93;;
20067;SDS011;10194;50.824;7.134;2023-06-26T08:09:25;167.33;;;109.10;;
20067;SDS011;10194;50.824;7.134;2023-06-26T08:11:52;172.10;;;110.90;;
20067;SDS011;10194;50.824;7.134;2023-06-26T08:14:19;163.80;;;108.50;;
20067;SDS011;10194;50.824;7.134;2023-06-26T08:16:45;167.40;;;108.40;;
20067;SDS011;10194;50.824;7.134;2023-06-26T08:19:12;164.60;;;109.23;;
20067;SDS011;10194;50.824;7.134;2023-06-26T08:21:40;173.33;;;109.77;;
20067;SDS011;10194;50.824;7.134;2023-06-26T08:24:07;170.37;;;107.63;;
20067;SDS011;10194;50.824;7.134;2023-06-26T08:26:33;167.13;;;110.07;;
20067;SDS011;10194;50.824;7.134;2023-06-26T08:29:00;166.07;;;111.13;;
20067;SDS011;10194;50.824;7.134;2023-06-26T08:31:25;160.50;;;109.20;;
20067;SDS011;10194;50.824;7.134;2023-06-26T08:33:51;168.67;;;112.40;;
20067;SDS011;10194;50.824;7.134;2023-06-26T08:36:17;167.60;;;112.60;;
20067;SDS011;10194;50.824;7.134;2023-06-26T08:38:43;163.83;;;111.87;;
20067;SDS011;10194;50.824;7.134;2023-06-26T08:41:09;168.40;;;110.80;;
20067;SDS011;10194;50.824;7.134;2023-06-26T08:43:35;167.80;;;112.13;;
20067;SDS011;10194;50.824;7.134;2023-06-26T08:46:01;163.57;;;110.30;;
20067;SDS011;10194;50.824;7.134;2023-06-26T08:48:29;166.33;;;105.70;;
20067;SDS011;10194;50.824;7.134;2023-06-26T08:51:04;163.03;;;106.20;;
20067;SDS011;10194;50.824;7.134;2023-06-26T08:56:24;163.60;;;107.50;;
20067;SDS011;10194;50.824;7.134;2023-06-26T08:58:58;164.17;;;108.90;;
20067;SDS011;10194;50.824;7.134;2023-06-26T09:01:24;161.57;;;103.23;;
20067;SDS011;10194;50.824;7.134;2023-06-26T09:03:50;162.20;;;104.63;;
20067;SDS011;10194;50.824;7.134;2023-06-26T09:06:17;172.23;;;107.80;;
20067;SDS011;10194;50.824;7.134;2023-06-26T09:08:43;166.00;;;107.63;;
20067;SDS011;10194;50.824;7.134;2023-06-26T09:11:09;162.43;;;107.20;;
20067;SDS011;10194;50.824;7.134;2023-06-26T09:13:35;164.17;;;106.73;;
20067;SDS011;10194;50.824;7.134;2023-06-26T09:16:06;160.57;;;105.33;;
20067;SDS011;10194;50.824;7.134;2023-06-26T09:18:33;165.13;;;107.83;;
20067;SDS011;10194;50.824;7.134;2023-06-26T09:20:59;163.77;;;106.40;;
20067;SDS011;10194;50.824;7.134;2023-06-26T09:23:25;160.47;;;105.13;;
20067;SDS011;10194;50.824;7.134;2023-06-26T09:25:51;162.53;;;103.33;;
20067;SDS011;10194;50.824;7.134;2023-06-26T09:28:17;165.63;;;106.63;;
20067;SDS011;10194;50.824;7.134;2023-06-26T09:30:44;165.20;;;107.00;;
20067;SDS011;10194;50.824;7.134;2023-06-26T09:33:18;165.73;;;105.87;;
20067;SDS011;10194;50.824;7.134;2023-06-26T09:35:44;164.27;;;108.87;;
20067;SDS011;10194;50.824;7.134;2023-06-26T09:38:12;162.97;;;107.37;;
20067;SDS011;10194;50.824;7.134;2023-06-26T09:40:39;167.87;;;108.27;;
20067;SDS011;10194;50.824;7.134;2023-06-26T09:43:05;164.30;;;110.50;;
20067;SDS011;10194;50.824;7.134;2023-06-26T09:45:33;162.90;;;106.70;;
20067;SDS011;10194;50.824;7.134;2023-06-26T09:48:03;167.27;;;109.90;;
20067;SDS011;10194;50.824;7.134;2023-06-26T09:50:31;165.67;;;110.60;;
20067;SDS011;10194;50.824;7.134;2023-06-26T09:53:12;162.07;;;106.20;;
20067;SDS011;10194;50.824;7.134;2023-06-26T09:55:38;167.07;;;107.93;;
20067;SDS011;10194;50.824;7.134;2023-06-26T09:58:10;166.27;;;104.90;;
20067;SDS011;10194;50.824;7.134;2023-06-26T10:00:40;165.07;;;104.60;;
20067;SDS011;10194;50.824;7.134;2023-06-26T10:03:09;160.97;;;106.50;;
20067;SDS011;10194;50.824;7.134;2023-06-26T10:05:37;162.77;;;108.33;;
20067;SDS011;10194;50.824;7.134;2023-06-26T10:08:04;161.63;;;105.10;;
20067;SDS011;10194;50.824;7.134;2023-06-26T10:10:31;166.43;;;107.10;;
20067;SDS011;10194;50.824;7.134;2023-06-26T10:13:04;160.90;;;105.37;;
20067;SDS011;10194;50.824;7.134;2023-06-26T10:15:37;163.33;;;107.87;;
20067;SDS011;10194;50.824;7.134;2023-06-26T10:18:05;167.27;;;107.13;;
20067;SDS011;10194;50.824;7.134;2023-06-26T10:20:31;164.27;;;109.60;;
20067;SDS011;10194;50.824;7.134;2023-06-26T10:22:57;166.20;;;106.73;;
20067;SDS011;10194;50.824;7.134;2023-06-26T10:25:27;166.63;;;109.30;;
20067;SDS011;10194;50.824;7.134;2023-06-26T10:27:56;163.57;;;107.37;;
20067;SDS011;10194;50.824;7.134;2023-06-26T10:30:29;166.23;;;110.43;;
20067;SDS011;10194;50.824;7.134;2023-06-26T10:32:59;162.63;;;108.67;;
20067;SDS011;10194;50.824;7.134;2023-06-26T10:35:25;165.30;;;110.60;;
20067;SDS011;10194;50.824;7.134;2023-06-26T10:37:52;164.83;;;107.93;;
20067;SDS011;10194;50.824;7.134;2023-06-26T10:40:39;166.53;;;106.40;;
20067;SDS011;10194;50.824;7.134;2023-06-26T10:43:14;159.60;;;101.50;;
20067;SDS011;10194;50.824;7.134;2023-06-26T10:45:50;164.90;;;104.63;;
20067;SDS011;10194;50.824;7.134;2023-06-26T10:48:20;160.53;;;104.30;;
20067;SDS011;10194;50.824;7.134;2023-06-26T10:50:47;162.67;;;106.47;;
20067;SDS011;10194;50.824;7.134;2023-06-26T10:55:48;164.37;;;107.77;;
20067;SDS011;10194;50.824;7.134;2023-06-26T11:03:42;159.53;;;107.63;;
20067;SDS011;10194;50.824;7.134;2023-06-26T11:06:16;162.10;;;103.67;;
20067;SDS011;10194;50.824;7.134;2023-06-26T11:08:48;166.17;;;106.33;;
20067;SDS011;10194;50.824;7.134;2023-06-26T11:11:18;162.40;;;104.73;;
20067;SDS011;10194;50.824;7.134;2023-06-26T11:13:48;159.00;;;102.57;;
20067;SDS011;10194;50.824;7.134;2023-06-26T11:16:14;160.83;;;102.93;;
20067;SDS011;10194;50.824;7.134;2023-06-26T11:18:40;164.43;;;106.43;;
20067;SDS011;10194;50.824;7.134;2023-06-26T11:21:08;157.57;;;101.97;;
20067;SDS011;10194;50.824;7.134;2023-06-26T11:23:38;163.27;;;103.57;;
20067;SDS011;10194;50.824;7.134;2023-06-26T11:26:39;163.73;;;104.03;;
20067;SDS011;10194;50.824;7.134;2023-06-26T11:29:04;163.27;;;104.83;;
20067;SDS011;10194;50.824;7.134;2023-06-26T11:31:32;160.60;;;105.33;;
20067;SDS011;10194;50.824;7.134;2023-06-26T11:34:00;162.57;;;106.73;;
20067;SDS011;10194;50.824;7.134;2023-06-26T11:36:32;172.07;;;113.80;;
20067;SDS011;10194;50.824;7.134;2023-06-26T11:39:02;160.90;;;107.60;;
20067;SDS011;10194;50.824;7.134;2023-06-26T11:41:31;158.80;;;106.30;;
20067;SDS011;10194;50.824;7.134;2023-06-26T11:44:02;160.40;;;107.37;;
20067;SDS011;10194;50.824;7.134;2023-06-26T11:46:36;160.80;;;106.10;;
20067;SDS011;10194;50.824;7.134;2023-06-26T11:49:03;161.33;;;110.53;;
20067;SDS011;10194;50.824;7.134;2023-06-26T11:51:31;165.43;;;109.37;;
20067;SDS011;10194;50.824;7.134;2023-06-26T11:54:00;160.60;;;108.93;;
20067;SDS011;10194;50.824;7.134;2023-06-26T11:56:30;163.40;;;107.30;;
20067;SDS011;10194;50.824;7.134;2023-06-26T12:01:33;167.50;;;108.83;;
20067;SDS011;10194;50.824;7.134;2023-06-26T12:04:08;161.00;;;105.43;;
20067;SDS011;10194;50.824;7.134;2023-06-26T12:06:37;162.20;;;106.53;;
20067;SDS011;10194;50.824;7.134;2023-06-26T12:09:09;159.37;;;101.50;;
20067;SDS011;10194;50.824;7.134;2023-06-26T12:11:43;158.53;;;103.77;;
20067;SDS011;10194;50.824;7.134;2023-06-26T12:14:13;159.03;;;102.53;;
20067;SDS011;10194;50.824;7.134;2023-06-26T12:16:40;157.87;;;102.93;;
20067;SDS011;10194;50.824;7.134;2023-06-26T12:19:08;163.13;;;106.97;;
20067;SDS011;10194;50.824;7.134;2023-06-26T12:24:04;163.40;;;107.70;;
20067;SDS011;10194;50.824;7.134;2023-06-26T12:26:32;159.40;;;105.93;;
20067;SDS011;10194;50.824;7.134;2023-06-26T12:29:11;161.10;;;106.87;;
20067;SDS011;10194;50.824;7.134;2023-06-26T12:31:42;164.43;;;109.23;;
20067;SDS011;10194;50.824;7.134;2023-06-26T12:34:11;160.60;;;109.23;;
20067;SDS011;10194;50.824;7.134;2023-06-26T12:36:42;166.30;;;106.00;;
20067;SDS011;10194;50.824;7.134;2023-06-26T12:39:16;160.40;;;100.17;;
20067;SDS011;10194;50.824;7.134;2023-06-26T12:41:45;165.30;;;105.00;;
20067;SDS011;10194;50.824;7.134;2023-06-26T12:44:28;160.23;;;100.63;;
20067;SDS011;10194;50.824;7.134;2023-06-26T12:46:56;157.57;;;102.20;;
20067;SDS011;10194;50.824;7.134;2023-06-26T12:49:39;158.47;;;101.70;;
20067;SDS011;10194;50.824;7.134;2023-06-26T12:52:07;157.27;;;101.80;;
20067;SDS011;10194;50.824;7.134;2023-06-26T12:54:39;155.83;;;101.67;;
20067;SDS011;10194;50.824;7.134;2023-06-26T12:57:07;159.07;;;102.90;;
20067;SDS011;10194;50.824;7.134;2023-06-26T12:59:33;159.53;;;109.50;;
20067;SDS011;10194;50.824;7.134;2023-06-26T13:02:03;162.27;;;106.73;;
20067;SDS011;10194;50.824;7.134;2023-06-26T13:04:30;156.63;;;103.37;;
20067;SDS011;10194;50.824;7.134;2023-06-26T13:06:56;163.70;;;107.03;;
20067;SDS011;10194;50.824;7.134;2023-06-26T13:09:23;169.53;;;101.97;;
20067;SDS011;10194;50.824;7.134;2023-06-26T13:11:53;166.80;;;106.67;;
20067;SDS011;10194;50.824;7.134;2023-06-26T13:14:19;157.53;;;103.37;;
20067;SDS011;10194;50.824;7.134;2023-06-26T13:16:44;163.03;;;104.97;;
20067;SDS011;10194;50.824;7.134;2023-06-26T13:19:10;157.70;;;102.30;;
20067;SDS011;10194;50.824;7.134;2023-06-26T13:21:36;161.70;;;103.00;;
20067;SDS011;10194;50.824;7.134;2023-06-26T13:24:02;160.90;;;103.30;;
20067;SDS011;10194;50.824;7.134;2023-06-26T13:26:29;161.10;;;102.83;;
20067;SDS011;10194;50.824;7.134;2023-06-26T13:28:55;164.53;;;104.67;;
20067;SDS011;10194;50.824;7.134;2023-06-26T13:31:21;163.60;;;104.60;;
20067;SDS011;10194;50.824;7.134;2023-06-26T13:33:47;157.70;;;105.50;;
20067;SDS011;10194;50.824;7.134;2023-06-26T13:36:14;159.40;;;106.40;;
20067;SDS011;10194;50.824;7.134;2023-06-26T13:38:44;159.47;;;102.73;;
20067;SDS011;10194;50.824;7.134;2023-06-26T13:41:10;154.53;;;100.17;;
20067;SDS011;10194;50.824;7.134;2023-06-26T13:43:35;167.03;;;105.23;;
20067;SDS011;10194;50.824;7.134;2023-06-26T13:46:01;155.77;;;99.60;;
20067;SDS011;10194;50.824;7.134;2023-06-26T13:48:28;156.37;;;98.80;;
20067;SDS011;10194;50.824;7.134;2023-06-26T13:50:54;151.60;;;96.47;;
20067;SDS011;10194;50.824;7.134;2023-06-26T13:53:21;152.97;;;97.70;;
20067;SDS011;10194;50.824;7.134;2023-06-26T13:55:47;160.67;;;98.73;;
20067;SDS011;10194;50.824;7.134;2023-06-26T13:58:13;157.30;;;98.57;;
20067;SDS011;10194;50.824;7.134;2023-06-26T14:00:40;157.00;;;98.03;;
20067;SDS011;10194;50.824;7.134;2023-06-26T14:03:06;155.67;;;98.10;;
20067;SDS011;10194;50.824;7.134;2023-06-26T14:05:35;158.90;;;101.43;;
20067;SDS011;10194;50.824;7.134;2023-06-26T14:08:05;157.30;;;100.70;;
20067;SDS011;10194;50.824;7.134;2023-06-26T14:10:32;161.33;;;98.43;;
20067;SDS011;10194;50.824;7.134;2023-06-26T14:12:58;160.97;;;98.20;;
20067;SDS011;10194;50.824;7.134;2023-06-26T14:15:28;154.80;;;96.40;;
20067;SDS011;10194;50.824;7.134;2023-06-26T14:17:54;155.83;;;98.33;;
20067;SDS011;10194;50.824;7.134;2023-06-26T14:20:21;158.03;;;100.43;;
20067;SDS011;10194;50.824;7.134;2023-06-26T14:22:47;156.40;;;99.43;;
20067;SDS011;10194;50.824;7.134;2023-06-26T14:25:14;157.57;;;101.27;;
20067;SDS011;10194;50.824;7.134;2023-06-26T14:27:41;164.60;;;104.10;;
20067;SDS011;10194;50.824;7.134;2023-06-26T14:30:07;157.40;;;100.20;;
20067;SDS011;10194;50.824;7.134;2023-06-26T14:32:34;160.33;;;101.47;;